createdAt,value
2017-10-25T00:01:51.215Z,1.10
2017-10-25T00:03:53.672Z,0.93
2017-10-25T00:05:56.109Z,2.17
2017-10-25T00:07:58.607Z,1.00
2017-10-25T00:10:01.140Z,1.00
2017-10-25T00:12:03.585Z,1.33
2017-10-25T00:14:06.068Z,2.20
2017-10-25T00:16:08.518Z,4.20
2017-10-25T00:18:10.970Z,1.20
2017-10-25T00:20:13.452Z,1.30
2017-10-25T00:22:15.895Z,1.30
2017-10-25T00:24:18.348Z,1.20
2017-10-25T00:26:20.914Z,1.47
2017-10-25T00:28:23.388Z,1.10
2017-10-25T00:30:25.820Z,1.40
2017-10-25T00:32:28.287Z,1.67
2017-10-25T00:34:30.840Z,1.40
2017-10-25T00:36:33.281Z,1.20
2017-10-25T00:38:35.775Z,1.40
2017-10-25T00:40:38.248Z,1.63
2017-10-25T00:42:40.693Z,1.77
2017-10-25T00:44:43.167Z,1.67
2017-10-25T00:46:45.660Z,1.67
2017-10-25T00:48:48.328Z,1.73
2017-10-25T00:50:50.808Z,1.43
2017-10-25T00:52:53.262Z,1.07
2017-10-25T00:54:55.696Z,1.37
2017-10-25T00:56:58.171Z,1.47
2017-10-25T00:59:00.618Z,1.50
2017-10-25T01:01:03.064Z,1.50
2017-10-25T01:03:05.542Z,1.17
2017-10-25T01:05:07.986Z,1.00
2017-10-25T01:07:10.441Z,1.33
2017-10-25T01:09:12.914Z,1.23
2017-10-25T01:11:15.403Z,1.23
2017-10-25T01:13:17.838Z,1.20
2017-10-25T01:15:20.359Z,1.67
2017-10-25T01:17:22.800Z,1.53
2017-10-25T01:19:25.244Z,1.33
2017-10-25T01:21:27.738Z,1.47
2017-10-25T01:23:30.178Z,1.33
2017-10-25T01:25:32.624Z,1.00
2017-10-25T01:27:35.180Z,1.43
2017-10-25T01:29:37.624Z,1.13
2017-10-25T01:31:40.067Z,1.77
2017-10-25T01:33:42.541Z,1.17
2017-10-25T01:35:45.050Z,1.33
2017-10-25T01:37:47.513Z,1.73
2017-10-25T01:39:50.018Z,1.33
2017-10-25T01:41:52.451Z,1.47
2017-10-25T01:43:54.905Z,1.20
2017-10-25T01:45:57.381Z,2.20
2017-10-25T01:47:59.829Z,1.13
2017-10-25T01:50:02.406Z,1.10
2017-10-25T01:52:04.885Z,1.43
2017-10-25T01:54:07.321Z,1.27
2017-10-25T01:56:09.752Z,1.40
2017-10-25T01:58:12.261Z,1.17
2017-10-25T02:00:14.710Z,1.20
2017-10-25T02:02:17.155Z,1.43
2017-10-25T02:04:19.627Z,1.10
2017-10-25T02:06:22.055Z,1.40
2017-10-25T02:08:24.496Z,1.10
2017-10-25T02:10:26.964Z,1.63
2017-10-25T02:12:29.519Z,1.40
2017-10-25T02:14:32.010Z,1.67
2017-10-25T02:16:34.492Z,1.10
2017-10-25T02:18:36.945Z,1.93
2017-10-25T02:20:39.381Z,1.60
2017-10-25T02:22:41.859Z,2.20
2017-10-25T02:24:44.327Z,1.20
2017-10-25T02:26:46.788Z,1.67
2017-10-25T02:28:49.274Z,1.40
2017-10-25T02:30:51.738Z,2.13
2017-10-25T02:32:54.173Z,1.17
2017-10-25T02:34:56.690Z,1.10
2017-10-25T02:36:59.155Z,1.00
2017-10-25T02:39:01.607Z,1.50
2017-10-25T02:41:04.093Z,1.30
2017-10-25T02:43:06.541Z,1.10
2017-10-25T02:45:08.986Z,1.20
2017-10-25T02:47:11.510Z,1.37
2017-10-25T02:49:13.960Z,1.70
2017-10-25T02:51:16.507Z,1.90
2017-10-25T02:53:18.974Z,1.83
2017-10-25T02:55:21.491Z,1.30
2017-10-25T02:57:23.949Z,1.20
2017-10-25T02:59:26.424Z,1.10
2017-10-25T03:01:28.870Z,0.97
2017-10-25T03:03:31.307Z,1.10
2017-10-25T03:05:33.785Z,1.53
2017-10-25T03:07:36.304Z,1.40
2017-10-25T03:09:38.742Z,2.30
2017-10-25T03:11:41.215Z,1.23
2017-10-25T03:13:43.716Z,1.17
2017-10-25T03:15:46.165Z,1.00
2017-10-25T03:17:48.638Z,1.60
2017-10-25T03:19:51.095Z,3.03
2017-10-25T03:21:53.551Z,1.50
2017-10-25T03:23:56.026Z,1.50
2017-10-25T03:25:58.552Z,1.73
2017-10-25T03:28:00.997Z,1.30
2017-10-25T03:30:03.473Z,1.30
2017-10-25T03:32:05.909Z,1.60
2017-10-25T03:34:08.340Z,1.17
2017-10-25T03:36:10.813Z,1.10
2017-10-25T03:38:13.296Z,1.53
2017-10-25T03:40:15.748Z,1.03
2017-10-25T03:42:18.220Z,1.40
2017-10-25T03:44:20.691Z,2.07
2017-10-25T03:46:23.139Z,1.20
2017-10-25T03:48:25.617Z,1.97
2017-10-25T03:50:28.075Z,1.20
2017-10-25T03:52:30.645Z,1.77
2017-10-25T03:54:33.126Z,1.20
2017-10-25T03:56:35.572Z,1.30
2017-10-25T03:58:38.134Z,1.10
2017-10-25T04:00:40.630Z,1.00
2017-10-25T04:02:43.107Z,1.70
2017-10-25T04:04:45.553Z,1.07
2017-10-25T04:06:48.016Z,1.23
2017-10-25T04:08:50.448Z,1.00
2017-10-25T04:10:52.892Z,1.10
2017-10-25T04:12:55.405Z,1.10
2017-10-25T04:14:57.863Z,1.20
2017-10-25T04:17:00.300Z,2.60
2017-10-25T04:19:02.867Z,1.10
2017-10-25T04:21:05.316Z,1.20
2017-10-25T04:23:07.767Z,2.47
2017-10-25T04:25:10.251Z,1.10
2017-10-25T04:27:12.685Z,1.10
2017-10-25T04:29:15.214Z,1.20
2017-10-25T04:31:17.713Z,1.57
2017-10-25T04:33:20.166Z,1.13
2017-10-25T04:35:22.732Z,1.10
2017-10-25T04:37:25.206Z,1.13
2017-10-25T04:39:27.652Z,1.10
2017-10-25T04:41:30.088Z,1.43
2017-10-25T04:43:32.550Z,1.23
2017-10-25T04:45:34.997Z,1.40
2017-10-25T04:47:37.448Z,1.17
2017-10-25T04:49:39.916Z,1.20
2017-10-25T04:51:42.351Z,1.33
2017-10-25T04:53:44.943Z,1.10
2017-10-25T04:55:47.417Z,1.20
2017-10-25T04:57:49.879Z,1.50
2017-10-25T04:59:52.313Z,1.10
2017-10-25T05:01:54.836Z,1.60
2017-10-25T05:03:57.336Z,2.13
2017-10-25T05:05:59.881Z,1.10
2017-10-25T05:08:02.354Z,1.17
2017-10-25T05:10:04.788Z,1.20
2017-10-25T05:12:07.260Z,1.33
2017-10-25T05:14:09.775Z,1.20
2017-10-25T05:16:12.241Z,2.10
2017-10-25T05:18:14.732Z,1.20
2017-10-25T05:20:17.216Z,1.10
2017-10-25T05:22:19.697Z,1.63
2017-10-25T05:24:22.221Z,1.17
2017-10-25T05:26:24.795Z,1.13
2017-10-25T05:28:27.228Z,1.10
2017-10-25T05:30:29.689Z,1.20
2017-10-25T05:32:32.146Z,1.00
2017-10-25T05:34:34.673Z,1.20
2017-10-25T05:36:37.133Z,1.50
2017-10-25T05:38:39.600Z,1.70
2017-10-25T05:40:42.036Z,1.50
2017-10-25T05:42:44.541Z,1.50
2017-10-25T05:44:47.000Z,1.50
2017-10-25T05:46:49.449Z,2.20
2017-10-25T05:48:51.894Z,1.13
2017-10-25T05:50:54.354Z,1.20
2017-10-25T05:52:56.798Z,1.60
2017-10-25T05:54:59.338Z,1.20
2017-10-25T05:57:01.797Z,1.30
2017-10-25T05:59:04.249Z,1.40
2017-10-25T06:01:06.724Z,1.17
2017-10-25T06:03:09.252Z,3.73
2017-10-25T06:05:11.681Z,1.10
2017-10-25T06:07:14.119Z,1.33
2017-10-25T06:09:16.587Z,1.20
2017-10-25T06:11:19.030Z,1.00
2017-10-25T06:13:21.481Z,1.30
2017-10-25T06:15:24.030Z,7.00
2017-10-25T06:17:26.610Z,2.33
2017-10-25T06:19:29.056Z,2.03
2017-10-25T06:21:31.644Z,1.13
2017-10-25T06:23:34.161Z,1.10
2017-10-25T06:25:36.608Z,1.50
2017-10-25T06:27:39.060Z,1.00
2017-10-25T06:29:41.544Z,1.10
2017-10-25T06:31:43.984Z,1.00
2017-10-25T06:33:46.513Z,2.30
2017-10-25T06:35:49.024Z,2.10
2017-10-25T06:37:51.468Z,1.30
2017-10-25T06:39:53.931Z,1.40
2017-10-25T06:41:56.397Z,1.33
2017-10-25T06:43:58.850Z,1.60
2017-10-25T06:46:01.347Z,1.90
2017-10-25T06:48:03.859Z,1.30
2017-10-25T06:50:06.344Z,1.37
2017-10-25T06:52:08.804Z,1.10
2017-10-25T06:54:11.287Z,15.63
2017-10-25T06:56:13.946Z,1.73
2017-10-25T06:58:16.400Z,1.20
2017-10-25T07:00:18.903Z,1.90
2017-10-25T07:02:21.348Z,1.07
2017-10-25T07:04:23.888Z,2.40
2017-10-25T07:06:26.331Z,1.40
2017-10-25T07:08:28.799Z,1.20
2017-10-25T07:10:31.261Z,4.80
2017-10-25T07:12:33.707Z,1.07
2017-10-25T07:14:36.483Z,1.60
2017-10-25T07:16:38.982Z,1.20
2017-10-25T07:18:41.434Z,1.20
2017-10-25T07:20:43.899Z,1.20
2017-10-25T07:22:47.592Z,3.00
2017-10-25T07:24:51.405Z,1.13
2017-10-25T07:26:55.138Z,2.40
2017-10-25T07:28:57.874Z,1.23
2017-10-25T07:31:00.401Z,1.20
2017-10-25T07:33:02.882Z,1.00
2017-10-25T07:35:05.360Z,1.40
2017-10-25T07:37:07.898Z,1.60
2017-10-25T07:39:10.364Z,1.10
2017-10-25T07:41:12.829Z,1.40
2017-10-25T07:43:15.268Z,1.50
2017-10-25T07:45:17.774Z,1.10
2017-10-25T07:47:20.261Z,1.57
2017-10-25T07:49:22.740Z,3.73
2017-10-25T07:51:25.176Z,2.20
2017-10-25T07:53:27.666Z,1.10
2017-10-25T07:55:30.102Z,1.10
2017-10-25T07:57:32.548Z,1.20
2017-10-25T07:59:35.174Z,2.43
2017-10-25T08:01:37.791Z,1.30
2017-10-25T08:03:40.275Z,1.40
2017-10-25T08:05:42.825Z,2.40
2017-10-25T08:07:45.260Z,1.17
2017-10-25T08:09:47.719Z,1.90
2017-10-25T08:11:50.202Z,2.23
2017-10-25T08:13:52.642Z,3.30
2017-10-25T08:15:55.084Z,3.80
2017-10-25T08:17:57.572Z,1.20
2017-10-25T08:20:00.104Z,2.40
2017-10-25T08:22:02.566Z,1.13
2017-10-25T08:24:05.056Z,6.03
2017-10-25T08:26:07.561Z,1.20
2017-10-25T08:28:10.004Z,5.20
2017-10-25T08:30:12.477Z,1.95
2017-10-25T08:32:15.006Z,2.37
2017-10-25T08:34:17.444Z,1.30
2017-10-25T08:36:19.927Z,1.50
2017-10-25T08:38:22.436Z,1.30
2017-10-25T08:40:24.900Z,2.10
2017-10-25T08:42:27.473Z,1.97
2017-10-25T08:44:29.922Z,6.20
2017-10-25T08:46:32.385Z,1.52
2017-10-25T08:48:34.860Z,6.35
2017-10-25T08:50:37.316Z,3.60
2017-10-25T08:52:39.764Z,1.27
2017-10-25T08:54:42.229Z,1.00
2017-10-25T08:56:44.668Z,2.10
2017-10-25T08:58:47.313Z,2.00
2017-10-25T09:00:49.789Z,1.30
2017-10-25T09:02:52.271Z,3.03
2017-10-25T09:04:54.723Z,1.50
2017-10-25T09:06:57.195Z,2.33
2017-10-25T09:08:59.637Z,1.23
2017-10-25T09:11:02.403Z,3.40
2017-10-25T09:13:06.022Z,2.10
2017-10-25T09:15:08.582Z,3.10
2017-10-25T09:17:11.042Z,2.55
2017-10-25T09:19:13.519Z,1.30
2017-10-25T09:21:15.965Z,1.53
2017-10-25T09:23:18.409Z,1.45
2017-10-25T09:25:20.923Z,1.33
2017-10-25T09:27:23.451Z,1.58
2017-10-25T09:29:25.895Z,1.60
2017-10-25T09:31:28.488Z,1.20
2017-10-25T09:33:30.929Z,6.20
2017-10-25T09:35:33.370Z,1.33
2017-10-25T09:37:35.849Z,1.35
2017-10-25T09:39:38.280Z,1.70
2017-10-25T09:41:40.825Z,3.20
2017-10-25T09:43:43.292Z,1.50
2017-10-25T09:45:45.732Z,1.70
2017-10-25T09:47:48.302Z,3.93
2017-10-25T09:49:50.785Z,1.30
2017-10-25T09:51:53.285Z,3.35
2017-10-25T09:53:55.719Z,1.10
2017-10-25T09:55:58.189Z,3.97
2017-10-25T09:58:00.644Z,1.55
2017-10-25T10:00:03.140Z,2.80
2017-10-25T10:02:06.644Z,1.80
2017-10-25T10:04:09.093Z,1.20
2017-10-25T10:06:11.550Z,1.53
2017-10-25T10:08:14.344Z,1.20
2017-10-25T10:10:16.784Z,2.50
2017-10-25T10:12:19.238Z,1.23
2017-10-25T10:14:21.745Z,1.65
2017-10-25T10:16:24.185Z,1.40
2017-10-25T10:18:26.649Z,2.60
2017-10-25T10:20:29.123Z,2.47
2017-10-25T10:22:31.858Z,1.20
2017-10-25T10:24:34.309Z,1.80
2017-10-25T10:26:36.782Z,2.00
2017-10-25T10:28:39.320Z,1.37
2017-10-25T10:30:41.787Z,1.80
2017-10-25T10:32:44.513Z,1.50
2017-10-25T10:34:46.961Z,1.40
2017-10-25T10:36:49.400Z,1.30
2017-10-25T10:38:52.901Z,1.10
2017-10-25T10:40:55.390Z,1.20
2017-10-25T10:42:57.825Z,2.73
2017-10-25T10:45:00.390Z,2.13
2017-10-25T10:47:02.821Z,1.97
2017-10-25T10:49:05.257Z,1.97
2017-10-25T10:51:07.761Z,5.70
2017-10-25T10:53:10.259Z,2.70
2017-10-25T10:55:12.768Z,2.93
2017-10-25T10:57:15.249Z,7.50
2017-10-25T10:59:17.768Z,5.70
2017-10-25T11:01:20.325Z,4.53
2017-10-25T11:03:22.805Z,6.97
2017-10-25T11:05:25.285Z,3.37
2017-10-25T11:07:33.356Z,6.20
2017-10-25T11:09:35.836Z,8.48
2017-10-25T11:11:38.282Z,3.50
2017-10-25T11:13:40.735Z,6.12
2017-10-25T11:15:43.268Z,6.23
2017-10-25T11:17:45.699Z,10.77
2017-10-25T11:19:48.141Z,3.17
2017-10-25T11:21:50.677Z,3.25
2017-10-25T11:23:53.116Z,5.47
2017-10-25T11:25:55.562Z,2.20
2017-10-25T11:27:58.095Z,1.67
2017-10-25T11:30:00.557Z,5.03
2017-10-25T11:32:03.014Z,4.68
2017-10-25T11:34:05.489Z,1.90
2017-10-25T11:36:07.980Z,2.97
2017-10-25T11:38:10.420Z,1.90
2017-10-25T11:40:12.917Z,1.85
2017-10-25T11:42:15.360Z,5.35
2017-10-25T11:44:18.748Z,4.33
2017-10-25T11:46:21.241Z,2.03
2017-10-25T11:48:23.687Z,2.10
2017-10-25T11:50:26.152Z,1.70
2017-10-25T11:52:28.662Z,3.40
2017-10-25T11:54:31.100Z,5.00
2017-10-25T11:56:33.665Z,1.90
2017-10-25T11:58:36.153Z,2.45
2017-10-25T12:00:38.604Z,2.97
2017-10-25T12:02:41.180Z,3.17
2017-10-25T12:04:43.668Z,1.50
2017-10-25T12:06:46.159Z,2.97
2017-10-25T12:08:48.724Z,2.00
2017-10-25T12:10:51.191Z,1.65
2017-10-25T12:12:53.641Z,3.25
2017-10-25T12:14:56.129Z,2.00
2017-10-25T12:16:58.617Z,2.53
2017-10-25T12:19:01.056Z,2.23
2017-10-25T12:21:03.504Z,1.83
2017-10-25T12:23:05.981Z,2.23
2017-10-25T12:25:08.516Z,3.10
2017-10-25T12:27:10.984Z,2.47
2017-10-25T12:29:13.517Z,2.37
2017-10-25T12:31:15.970Z,1.60
2017-10-25T12:33:18.419Z,2.50
2017-10-25T12:35:20.940Z,1.50
2017-10-25T12:37:23.380Z,2.63
2017-10-25T12:39:25.829Z,2.58
2017-10-25T12:41:28.298Z,1.50
2017-10-25T12:43:30.830Z,5.30
2017-10-25T12:45:33.289Z,2.63
2017-10-25T12:47:35.777Z,1.80
2017-10-25T12:49:38.217Z,1.87
2017-10-25T12:51:40.696Z,1.40
2017-10-25T12:53:43.261Z,2.50
2017-10-25T12:55:45.745Z,2.37
2017-10-25T12:57:48.277Z,2.10
2017-10-25T12:59:50.742Z,2.55
2017-10-25T13:01:53.175Z,2.00
2017-10-25T13:03:55.686Z,2.63
2017-10-25T13:05:58.157Z,3.50
2017-10-25T13:08:00.612Z,1.67
2017-10-25T13:10:03.086Z,7.57
2017-10-25T13:12:07.446Z,1.77
2017-10-25T13:14:12.625Z,3.23
2017-10-25T13:16:17.540Z,2.70
2017-10-25T13:18:21.601Z,2.40
2017-10-25T13:20:24.057Z,2.83
2017-10-25T13:22:26.579Z,2.70
2017-10-25T13:24:29.294Z,3.20
2017-10-25T13:26:31.737Z,1.90
2017-10-25T13:28:34.177Z,3.13
2017-10-25T13:30:36.649Z,2.17
2017-10-25T13:32:39.115Z,4.47
2017-10-25T13:34:41.568Z,2.67
2017-10-25T13:36:44.035Z,1.80
2017-10-25T13:38:46.489Z,2.60
2017-10-25T13:40:49.004Z,1.80
2017-10-25T13:42:51.561Z,2.13
2017-10-25T13:44:54.016Z,1.60
2017-10-25T13:46:56.448Z,2.43
2017-10-25T13:48:58.929Z,1.60
2017-10-25T13:51:01.394Z,2.83
2017-10-25T13:53:03.852Z,3.73
2017-10-25T13:55:06.379Z,3.40
2017-10-25T13:57:08.856Z,9.53
2017-10-25T13:59:11.308Z,13.90
2017-10-25T14:01:13.790Z,35.90
2017-10-25T14:03:16.245Z,45.73
2017-10-25T14:05:18.852Z,28.07
2017-10-25T14:07:21.369Z,69.63
2017-10-25T14:09:23.811Z,89.20
2017-10-25T14:11:26.340Z,72.73
2017-10-25T14:13:28.820Z,83.55
2017-10-25T14:15:31.277Z,97.28
2017-10-25T14:17:33.794Z,84.20
2017-10-25T14:19:36.292Z,121.30
2017-10-25T14:21:38.824Z,128.20
2017-10-25T14:23:41.384Z,121.40
2017-10-25T14:25:43.944Z,112.30
2017-10-25T14:27:58.355Z,99.80
2017-10-25T14:30:00.835Z,88.57
2017-10-25T14:32:03.337Z,73.20
2017-10-25T14:34:05.792Z,69.43
2017-10-25T14:36:08.285Z,59.37
2017-10-25T14:38:10.867Z,65.50
2017-10-25T14:40:13.315Z,53.07
2017-10-25T14:42:15.769Z,57.77
2017-10-25T14:44:18.256Z,53.73
2017-10-25T14:46:20.807Z,46.20
2017-10-25T14:48:23.277Z,39.07
2017-10-25T14:50:25.783Z,48.37
2017-10-25T14:52:28.231Z,46.23
2017-10-25T14:54:30.675Z,42.37
2017-10-25T14:56:33.193Z,39.67
2017-10-25T14:58:35.741Z,40.57
2017-10-25T15:00:38.232Z,35.00
2017-10-25T15:02:40.726Z,33.80
2017-10-25T15:04:43.195Z,31.13
2017-10-25T15:06:45.705Z,27.83
2017-10-25T15:08:48.238Z,31.87
2017-10-25T15:10:50.809Z,27.97
2017-10-25T15:12:53.355Z,28.43
2017-10-25T15:14:55.837Z,31.67
2017-10-25T15:16:58.561Z,23.13
2017-10-25T15:19:01.933Z,24.60
2017-10-25T15:21:04.561Z,25.97
2017-10-25T15:23:07.022Z,23.90
2017-10-25T15:25:09.472Z,27.77
2017-10-25T15:27:11.984Z,23.07
2017-10-25T15:29:14.432Z,25.90
2017-10-25T15:31:16.926Z,22.60
2017-10-25T15:33:19.415Z,20.10
2017-10-25T15:35:21.861Z,22.13
2017-10-25T15:37:24.435Z,26.10
2017-10-25T15:39:27.012Z,21.60
2017-10-25T15:41:29.476Z,26.77
2017-10-25T15:43:31.960Z,25.83
2017-10-25T15:45:34.521Z,22.13
2017-10-25T15:47:36.993Z,24.87
2017-10-25T15:49:39.488Z,23.90
2017-10-25T15:51:42.036Z,19.60
2017-10-25T15:53:44.502Z,21.53
2017-10-25T15:55:46.970Z,22.07
2017-10-25T15:57:49.474Z,21.23
2017-10-25T15:59:51.933Z,16.27
2017-10-25T16:01:54.381Z,18.70
2017-10-25T16:03:56.924Z,23.30
2017-10-25T16:05:59.397Z,27.60
2017-10-25T16:08:02.081Z,19.10
2017-10-25T16:10:04.575Z,14.07
2017-10-25T16:12:07.089Z,16.97
2017-10-25T16:14:09.608Z,16.67
2017-10-25T16:16:12.134Z,16.37
2017-10-25T16:18:14.618Z,16.33
2017-10-25T16:20:17.076Z,32.93
2017-10-25T16:22:19.607Z,13.60
2017-10-25T16:24:22.056Z,15.23
2017-10-25T16:26:24.499Z,16.67
2017-10-25T16:28:26.973Z,15.97
2017-10-25T16:30:29.488Z,17.30
2017-10-25T16:32:31.995Z,18.33
2017-10-25T16:34:34.484Z,13.43
2017-10-25T16:36:36.984Z,17.10
2017-10-25T16:38:39.520Z,16.80
2017-10-25T16:40:42.009Z,19.23
2017-10-25T16:42:44.457Z,18.73
2017-10-25T16:44:46.974Z,14.10
2017-10-25T16:46:49.488Z,17.57
2017-10-25T16:48:51.948Z,15.17
2017-10-25T16:50:54.402Z,18.03
2017-10-25T16:52:56.901Z,16.77
2017-10-25T16:54:59.355Z,14.33
2017-10-25T16:57:01.830Z,13.10
2017-10-25T16:59:04.337Z,14.50
2017-10-25T17:01:06.784Z,13.67
2017-10-25T17:03:09.358Z,25.10
2017-10-25T17:05:11.812Z,21.70
2017-10-25T17:07:14.285Z,23.30
2017-10-25T17:09:16.795Z,19.33
2017-10-25T17:11:19.334Z,15.30
2017-10-25T17:13:21.785Z,19.60
2017-10-25T17:15:24.228Z,14.93
2017-10-25T17:17:26.708Z,14.53
2017-10-25T17:19:29.168Z,18.77
2017-10-25T17:21:31.627Z,19.13
2017-10-25T17:23:34.105Z,20.03
2017-10-25T17:25:36.574Z,16.83
2017-10-25T17:27:39.017Z,11.40
2017-10-25T17:29:41.495Z,10.90
2017-10-25T17:31:43.937Z,12.37
2017-10-25T17:33:46.384Z,12.40
2017-10-25T17:35:48.852Z,15.20
2017-10-25T17:37:51.296Z,14.80
2017-10-25T17:39:53.831Z,15.80
2017-10-25T17:41:56.298Z,13.67
2017-10-25T17:43:58.816Z,13.00
2017-10-25T17:46:01.289Z,13.33
2017-10-25T17:48:03.973Z,14.20
2017-10-25T17:50:06.822Z,15.63
2017-10-25T17:52:09.268Z,19.07
2017-10-25T17:54:11.735Z,11.33
2017-10-25T17:56:14.516Z,10.10
2017-10-25T17:58:17.000Z,15.97
2017-10-25T18:00:19.481Z,14.10
2017-10-25T18:02:21.945Z,8.20
2017-10-25T18:04:24.394Z,15.00
2017-10-25T18:06:26.909Z,11.53
2017-10-25T18:08:29.345Z,8.83
2017-10-25T18:10:31.913Z,8.83
2017-10-25T18:12:34.380Z,11.93
2017-10-25T18:14:36.853Z,8.93
2017-10-25T18:16:39.309Z,12.03
2017-10-25T18:18:41.785Z,11.70
2017-10-25T18:20:44.225Z,15.50
2017-10-25T18:22:46.679Z,8.10
2017-10-25T18:24:49.261Z,11.47
2017-10-25T18:26:51.771Z,10.33
2017-10-25T18:28:54.394Z,9.40
2017-10-25T18:30:56.892Z,12.73
2017-10-25T18:32:59.355Z,8.40
2017-10-25T18:35:01.798Z,9.87
2017-10-25T18:37:04.269Z,12.17
2017-10-25T18:39:06.748Z,12.27
2017-10-25T18:41:09.236Z,11.90
2017-10-25T18:43:12.146Z,14.00
2017-10-25T18:45:14.925Z,10.33
2017-10-25T18:47:17.602Z,12.33
2017-10-25T18:49:20.479Z,11.93
2017-10-25T18:51:23.072Z,11.70
2017-10-25T18:53:25.534Z,12.93
2017-10-25T18:55:28.012Z,9.83
2017-10-25T18:57:30.768Z,8.47
2017-10-25T18:59:33.652Z,9.63
2017-10-25T19:01:36.184Z,8.60
2017-10-25T19:03:38.612Z,7.93
2017-10-25T19:05:41.100Z,9.03
2017-10-25T19:07:43.674Z,13.20
2017-10-25T19:09:46.150Z,8.80
2017-10-25T19:11:48.862Z,8.30
2017-10-25T19:13:51.332Z,8.87
2017-10-25T19:15:53.861Z,13.77
2017-10-25T19:17:56.310Z,10.90
2017-10-25T19:19:58.800Z,9.60
2017-10-25T19:22:01.250Z,6.50
2017-10-25T19:24:03.701Z,8.03
2017-10-25T19:26:06.201Z,11.23
2017-10-25T19:28:08.640Z,8.60
2017-10-25T19:30:11.144Z,8.93
2017-10-25T19:32:13.644Z,10.23
2017-10-25T19:34:16.193Z,8.27
2017-10-25T19:36:18.664Z,8.33
2017-10-25T19:38:21.260Z,12.90
2017-10-25T19:40:23.709Z,8.60
2017-10-25T19:42:26.146Z,9.00
2017-10-25T19:44:28.616Z,10.80
2017-10-25T19:46:31.117Z,7.27
2017-10-25T19:48:33.615Z,8.47
2017-10-25T19:50:36.084Z,7.60
2017-10-25T19:52:38.558Z,15.33
2017-10-25T19:54:41.020Z,11.73
2017-10-25T19:56:43.517Z,11.40
2017-10-25T19:58:45.951Z,9.33
2017-10-25T20:00:48.392Z,8.80
2017-10-25T20:02:50.872Z,6.90
2017-10-25T20:04:53.325Z,7.60
2017-10-25T20:06:55.786Z,8.10
2017-10-25T20:08:58.275Z,13.53
2017-10-25T20:11:00.742Z,10.20
2017-10-25T20:13:03.375Z,11.70
2017-10-25T20:15:05.849Z,12.60
2017-10-25T20:17:08.304Z,7.20
2017-10-25T20:19:10.744Z,11.13
2017-10-25T20:21:13.222Z,9.27
2017-10-25T20:23:15.684Z,9.43
2017-10-25T20:25:18.194Z,8.20
2017-10-25T20:27:20.660Z,8.93
2017-10-25T20:29:23.106Z,9.57
2017-10-25T20:31:25.553Z,10.27
2017-10-25T20:33:28.038Z,8.50
2017-10-25T20:35:30.495Z,11.50
2017-10-25T20:37:32.959Z,11.70
2017-10-25T20:39:35.440Z,11.83
2017-10-25T20:41:37.881Z,11.00
2017-10-25T20:43:40.387Z,8.90
2017-10-25T20:45:42.873Z,15.00
2017-10-25T20:47:45.332Z,8.67
2017-10-25T20:49:47.779Z,9.47
2017-10-25T20:51:50.270Z,10.57
2017-10-25T20:53:52.719Z,9.93
2017-10-25T20:55:55.203Z,12.00
2017-10-25T20:57:57.782Z,12.60
2017-10-25T21:00:00.228Z,9.67
2017-10-25T21:02:02.688Z,9.43
2017-10-25T21:04:05.164Z,10.13
2017-10-25T21:06:07.610Z,11.53
2017-10-25T21:08:10.053Z,14.63
2017-10-25T21:10:12.538Z,12.33
2017-10-25T21:12:14.977Z,11.40
2017-10-25T21:14:17.541Z,11.80
2017-10-25T21:16:20.162Z,10.40
2017-10-25T21:18:22.625Z,12.30
2017-10-25T21:20:25.267Z,12.70
2017-10-25T21:22:27.820Z,11.27
2017-10-25T21:24:30.318Z,9.33
2017-10-25T21:26:32.783Z,11.10
2017-10-25T21:28:35.261Z,12.63
2017-10-25T21:30:37.713Z,11.20
2017-10-25T21:32:40.161Z,9.03
2017-10-25T21:34:42.687Z,10.70
2017-10-25T21:36:45.141Z,12.37
2017-10-25T21:38:47.728Z,12.00
2017-10-25T21:40:50.221Z,11.70
2017-10-25T21:42:52.750Z,11.90
2017-10-25T21:44:55.202Z,9.13
2017-10-25T21:46:57.668Z,12.37
2017-10-25T21:49:00.109Z,9.40
2017-10-25T21:51:02.628Z,8.00
2017-10-25T21:53:05.213Z,8.40
2017-10-25T21:55:07.685Z,12.30
2017-10-25T21:57:10.150Z,11.60
2017-10-25T21:59:12.633Z,17.27
2017-10-25T22:01:15.088Z,8.23
2017-10-25T22:03:17.543Z,9.13
2017-10-25T22:05:20.044Z,13.03
2017-10-25T22:07:22.499Z,11.87
2017-10-25T22:09:24.943Z,11.73
2017-10-25T22:11:27.429Z,8.67
2017-10-25T22:13:29.881Z,8.03
2017-10-25T22:15:32.440Z,8.77
2017-10-25T22:17:34.902Z,8.20
2017-10-25T22:19:37.366Z,9.30
2017-10-25T22:21:39.820Z,11.07
2017-10-25T22:23:42.303Z,10.77
2017-10-25T22:25:44.764Z,11.53
2017-10-25T22:27:47.289Z,9.33
2017-10-25T22:29:49.777Z,11.53
2017-10-25T22:31:52.234Z,8.97
2017-10-25T22:33:54.701Z,12.47
2017-10-25T22:35:57.176Z,11.30
2017-10-25T22:37:59.616Z,10.73
2017-10-25T22:40:02.087Z,10.93
2017-10-25T22:42:04.641Z,8.67
2017-10-25T22:44:07.097Z,9.03
2017-10-25T22:46:09.532Z,9.60
2017-10-25T22:48:12.005Z,13.87
2017-10-25T22:50:14.564Z,10.37
2017-10-25T22:52:17.023Z,10.67
2017-10-25T22:54:19.500Z,13.00
2017-10-25T22:56:21.940Z,12.67
2017-10-25T22:58:24.379Z,11.67
2017-10-25T23:00:26.854Z,9.03
2017-10-25T23:02:29.300Z,10.70
2017-10-25T23:04:31.872Z,9.40
2017-10-25T23:06:34.358Z,10.33
2017-10-25T23:08:36.829Z,9.27
2017-10-25T23:10:40.460Z,10.87
2017-10-25T23:12:43.002Z,11.90
2017-10-25T23:14:45.533Z,8.67
2017-10-25T23:16:48.015Z,10.63
2017-10-25T23:18:50.487Z,9.47
2017-10-25T23:20:52.943Z,12.13
2017-10-25T23:22:55.421Z,11.37
2017-10-25T23:24:57.904Z,10.93
2017-10-25T23:27:00.340Z,7.77
2017-10-25T23:29:02.863Z,9.57
2017-10-25T23:31:05.352Z,10.40
2017-10-25T23:33:07.785Z,8.10
2017-10-25T23:35:10.229Z,8.37
2017-10-25T23:37:12.712Z,9.60
2017-10-25T23:39:15.173Z,9.40
2017-10-25T23:41:17.654Z,10.90
2017-10-25T23:43:20.129Z,10.40
2017-10-25T23:45:22.604Z,10.30
2017-10-25T23:47:25.066Z,11.43
2017-10-25T23:49:27.533Z,8.20
2017-10-25T23:51:30.060Z,9.57
2017-10-25T23:53:32.507Z,7.30
2017-10-25T23:55:34.979Z,9.10
2017-10-25T23:57:37.419Z,9.00
2017-10-25T23:59:39.945Z,9.93
